Time;durP1;ratioP1;P1;durP2;ratioP2;P2;SDS_P1;SDS_P2;PMS_P1;PMS_P2;Temp;Humidity;BMP_temperature;BMP_pressure;BME280_temperature;BME280_humidity;BME280_pressure;Samples;Min_cycle;Max_cycle;Signal;HPM_P1;HPM_P2
2021/10/23 00:02:14;;;;;;;12.80;1.57;;;10.70;99.90;;;;;;5024138;28;20557;-84
2021/10/23 00:04:40;;;;;;;7.27;1.60;;;10.70;99.90;;;;;;5029601;28;20210;-86
2021/10/23 00:07:09;;;;;;;9.40;2.13;;;10.80;99.90;;;;;;5012428;28;20243;-85
2021/10/23 00:09:36;;;;;;;6.70;1.47;;;10.80;99.90;;;;;;5008864;28;20596;-83
2021/10/23 00:12:03;;;;;;;4.53;1.30;;;10.80;99.90;;;;;;5009252;28;20207;-84
2021/10/23 00:14:30;;;;;;;5.17;1.23;;;10.70;99.90;;;;;;5010324;28;20199;-84
2021/10/23 00:16:56;;;;;;;5.20;1.97;;;10.70;99.90;;;;;;5011490;28;20203;-84
2021/10/23 00:19:23;;;;;;;2.70;1.10;;;10.70;99.90;;;;;;5011549;28;20203;-86
2021/10/23 00:21:50;;;;;;;3.20;1.13;;;10.60;99.90;;;;;;5010451;28;20211;-83
2021/10/23 00:24:18;;;;;;;8.37;1.30;;;10.70;99.90;;;;;;5014413;28;20219;-83
2021/10/23 00:26:45;;;;;;;4.23;1.27;;;10.70;99.90;;;;;;5010635;28;20227;-83
2021/10/23 00:29:12;;;;;;;6.77;1.47;;;10.80;99.90;;;;;;5010522;28;20894;-86
2021/10/23 00:31:39;;;;;;;4.27;1.30;;;10.80;99.90;;;;;;5011062;28;20215;-81
2021/10/23 00:34:06;;;;;;;6.47;1.40;;;10.90;99.90;;;;;;5010617;28;20207;-85
2021/10/23 00:36:32;;;;;;;9.03;2.37;;;10.90;99.90;;;;;;5028734;28;20221;-84
2021/10/23 00:38:59;;;;;;;5.23;1.20;;;10.80;99.90;;;;;;5031046;28;20207;-83
2021/10/23 00:41:28;;;;;;;4.70;1.33;;;10.80;99.90;;;;;;5020024;28;20207;-84
2021/10/23 00:43:54;;;;;;;14.20;1.60;;;10.80;99.90;;;;;;5011690;28;20210;-86
2021/10/23 00:46:21;;;;;;;6.17;2.13;;;10.90;99.90;;;;;;5011110;28;20246;-84
2021/10/23 00:48:48;;;;;;;8.90;2.07;;;10.90;99.90;;;;;;5011829;28;20214;-83
2021/10/23 00:51:15;;;;;;;6.80;1.70;;;10.90;99.90;;;;;;5012205;28;20211;-83
2021/10/23 00:53:43;;;;;;;5.87;1.10;;;10.90;99.90;;;;;;5011753;28;20230;-83
2021/10/23 00:56:11;;;;;;;3.80;1.50;;;10.90;99.90;;;;;;5010803;28;20203;-84
2021/10/23 00:58:39;;;;;;;8.07;1.37;;;10.90;99.90;;;;;;5027219;28;20215;-84
2021/10/23 01:01:06;;;;;;;5.37;1.07;;;10.90;99.90;;;;;;5030731;28;20206;-85
2021/10/23 01:03:33;;;;;;;4.53;1.50;;;10.90;99.90;;;;;;5030490;28;20507;-85
2021/10/23 01:06:00;;;;;;;5.03;1.10;;;10.90;99.90;;;;;;5026301;28;20542;-84
2021/10/23 01:08:27;;;;;;;5.37;1.30;;;10.80;99.90;;;;;;5010870;28;20230;-85
2021/10/23 01:10:54;;;;;;;4.63;1.20;;;10.80;99.90;;;;;;5021356;28;20207;-85
2021/10/23 01:13:21;;;;;;;6.47;1.57;;;10.80;99.90;;;;;;5031818;28;20203;-84
2021/10/23 01:15:49;;;;;;;6.30;1.17;;;10.80;99.90;;;;;;5031133;28;20205;-86
2021/10/23 01:18:16;;;;;;;5.77;1.20;;;10.80;99.90;;;;;;5018818;28;20207;-85
2021/10/23 01:20:44;;;;;;;4.57;1.17;;;10.70;99.90;;;;;;5011889;28;20211;-83
2021/10/23 01:23:11;;;;;;;4.50;1.20;;;10.70;99.90;;;;;;5011865;28;20215;-85
2021/10/23 01:25:38;;;;;;;4.93;1.17;;;10.60;99.90;;;;;;5026071;28;20222;-84
2021/10/23 01:28:05;;;;;;;4.13;1.20;;;10.60;99.90;;;;;;5031861;28;20198;-83
2021/10/23 01:30:33;;;;;;;2.63;0.97;;;10.70;99.90;;;;;;5019461;28;20596;-83
2021/10/23 01:33:00;;;;;;;8.03;2.00;;;10.70;99.90;;;;;;5013003;28;20211;-84
2021/10/23 01:35:29;;;;;;;7.87;1.30;;;10.70;99.90;;;;;;5013028;28;20605;-85
2021/10/23 01:37:58;;;;;;;6.00;1.53;;;10.80;99.90;;;;;;5021194;28;20599;-84
2021/10/23 01:40:28;;;;;;;5.40;1.37;;;10.80;99.90;;;;;;5032899;28;20199;-82
2021/10/23 01:42:55;;;;;;;6.17;1.30;;;10.90;99.90;;;;;;5035529;28;20190;-84
2021/10/23 01:45:22;;;;;;;3.70;1.40;;;10.80;99.90;;;;;;5034319;28;20218;-84
2021/10/23 01:47:49;;;;;;;4.53;1.17;;;10.80;99.90;;;;;;5023747;28;20207;-85
2021/10/23 01:50:18;;;;;;;6.30;1.43;;;10.80;99.90;;;;;;5043794;28;20221;-84
2021/10/23 01:52:45;;;;;;;8.13;1.70;;;10.70;99.90;;;;;;5037400;28;20210;-84
2021/10/23 01:55:15;;;;;;;9.20;1.40;;;10.70;99.90;;;;;;5035831;28;20209;-86
2021/10/23 01:57:42;;;;;;;6.63;1.17;;;10.60;99.90;;;;;;5030613;28;20211;-84
2021/10/23 02:00:11;;;;;;;7.60;2.53;;;10.70;99.90;;;;;;5031120;28;20206;-84
2021/10/23 02:02:39;;;;;;;4.90;1.00;;;10.70;99.90;;;;;;5030028;28;20206;-85
2021/10/23 02:05:06;;;;;;;4.37;0.97;;;10.70;99.90;;;;;;5030606;28;20199;-86
2021/10/23 02:07:33;;;;;;;6.77;1.83;;;10.70;99.90;;;;;;5020684;28;20242;-86
2021/10/23 02:10:00;;;;;;;5.60;1.13;;;10.70;99.90;;;;;;5010159;28;20211;-85
2021/10/23 02:12:29;;;;;;;4.40;1.27;;;10.80;99.90;;;;;;5010176;28;20833;-85
2021/10/23 02:14:56;;;;;;;5.10;1.10;;;10.70;99.90;;;;;;5010470;28;20204;-86
2021/10/23 02:17:23;;;;;;;3.83;1.00;;;10.70;99.90;;;;;;5010797;28;20262;-86
2021/10/23 02:19:49;;;;;;;5.60;1.40;;;10.70;99.90;;;;;;5013671;28;20219;-85
2021/10/23 02:22:16;;;;;;;3.83;1.70;;;10.60;99.90;;;;;;5031109;28;20215;-83
2021/10/23 02:24:43;;;;;;;7.87;2.13;;;10.60;99.90;;;;;;5033878;28;20233;-84
2021/10/23 02:27:10;;;;;;;4.33;1.17;;;10.60;99.90;;;;;;5033879;28;20807;-84
2021/10/23 02:29:38;;;;;;;6.00;1.23;;;10.60;99.90;;;;;;5021247;28;20218;-85
2021/10/23 02:32:06;;;;;;;4.90;1.30;;;10.70;99.90;;;;;;5013443;28;20202;-84
2021/10/23 02:34:33;;;;;;;6.73;1.80;;;10.60;99.90;;;;;;5012197;28;20199;-84
2021/10/23 02:36:59;;;;;;;4.30;1.00;;;10.60;99.90;;;;;;5017274;28;20703;-84
2021/10/23 02:39:26;;;;;;;5.40;1.93;;;10.60;99.90;;;;;;5032214;28;20201;-84
2021/10/23 02:41:53;;;;;;;4.70;1.70;;;10.60;99.90;;;;;;5032431;28;20829;-84
2021/10/23 02:44:20;;;;;;;2.73;1.27;;;10.40;99.90;;;;;;5032690;28;20209;-84
2021/10/23 02:46:48;;;;;;;5.97;1.50;;;10.30;99.90;;;;;;5030285;28;20215;-85
2021/10/23 02:49:17;;;;;;;9.17;1.47;;;10.20;99.90;;;;;;5033360;28;20213;-85
2021/10/23 02:51:43;;;;;;;7.83;1.50;;;10.30;99.90;;;;;;5033566;28;20237;-84
2021/10/23 02:54:10;;;;;;;3.97;1.10;;;10.30;99.90;;;;;;5032753;28;20221;-85
2021/10/23 02:56:37;;;;;;;4.83;1.10;;;10.30;99.90;;;;;;5031930;28;20610;-85
2021/10/23 02:59:05;;;;;;;6.63;1.33;;;10.30;99.90;;;;;;5027891;28;20210;-84
2021/10/23 03:01:32;;;;;;;5.70;1.33;;;10.30;99.90;;;;;;5011547;28;20202;-83
2021/10/23 03:04:00;;;;;;;3.30;1.10;;;10.40;99.90;;;;;;5012240;28;20203;-83
2021/10/23 03:06:27;;;;;;;3.30;1.10;;;10.50;99.90;;;;;;5012665;28;20238;-83
2021/10/23 03:08:54;;;;;;;6.40;1.80;;;10.40;99.90;;;;;;5012849;28;20231;-83
2021/10/23 03:11:21;;;;;;;5.77;1.50;;;10.40;99.90;;;;;;5012534;28;20679;-82
2021/10/23 03:13:48;;;;;;;7.63;1.03;;;10.40;99.90;;;;;;5013083;28;20218;-85
2021/10/23 03:16:15;;;;;;;4.87;1.00;;;10.40;99.90;;;;;;5012283;28;20211;-84
2021/10/23 03:18:42;;;;;;;3.73;1.13;;;10.40;99.90;;;;;;5012436;28;20203;-85
2021/10/23 03:21:10;;;;;;;5.90;1.30;;;10.30;99.90;;;;;;5013038;28;20527;-82
2021/10/23 03:23:37;;;;;;;8.07;1.20;;;10.30;99.90;;;;;;5010811;28;20215;-83
2021/10/23 03:26:04;;;;;;;5.00;1.30;;;10.30;99.90;;;;;;5027607;28;20222;-84
2021/10/23 03:28:31;;;;;;;5.93;1.20;;;10.40;99.90;;;;;;5025340;28;20200;-85
2021/10/23 03:30:58;;;;;;;5.23;1.30;;;10.40;99.90;;;;;;5011665;28;20206;-84
2021/10/23 03:33:25;;;;;;;6.50;1.30;;;10.40;99.90;;;;;;5012731;28;20209;-84
2021/10/23 03:35:51;;;;;;;9.73;1.40;;;10.50;99.90;;;;;;5012784;28;20203;-84
2021/10/23 03:38:20;;;;;;;7.53;1.47;;;10.40;99.90;;;;;;5012758;28;20790;-84
2021/10/23 03:40:47;;;;;;;5.20;1.20;;;10.50;99.90;;;;;;5013093;28;20242;-86
2021/10/23 03:43:13;;;;;;;4.90;1.17;;;10.50;99.90;;;;;;5012440;28;20520;-86
2021/10/23 03:45:40;;;;;;;4.17;1.37;;;10.60;99.90;;;;;;5012192;28;20214;-85
2021/10/23 03:48:07;;;;;;;5.90;1.33;;;10.60;99.90;;;;;;5012358;28;20229;-85
2021/10/23 03:50:34;;;;;;;6.20;1.27;;;10.60;99.90;;;;;;5011804;28;20211;-87
2021/10/23 03:53:01;;;;;;;5.60;1.10;;;10.60;99.90;;;;;;5012435;28;20588;-84
2021/10/23 03:55:29;;;;;;;6.40;1.17;;;10.60;99.90;;;;;;5011626;28;20210;-85
2021/10/23 03:57:56;;;;;;;4.70;1.00;;;10.60;99.90;;;;;;5012051;28;20215;-84
2021/10/23 04:00:23;;;;;;;4.53;1.20;;;10.60;99.90;;;;;;5013746;28;20215;-84
2021/10/23 04:02:50;;;;;;;6.27;1.10;;;10.60;99.90;;;;;;5031961;28;20527;-84
2021/10/23 04:05:17;;;;;;;5.73;1.20;;;10.50;99.90;;;;;;5031779;28;20214;-85
2021/10/23 04:07:43;;;;;;;8.77;1.17;;;10.40;99.90;;;;;;5032173;28;20250;-85
2021/10/23 04:10:10;;;;;;;7.43;1.47;;;10.40;99.90;;;;;;5020574;28;20203;-84
2021/10/23 04:12:38;;;;;;;4.63;1.20;;;10.40;99.90;;;;;;5010124;28;20210;-83
2021/10/23 04:15:06;;;;;;;4.10;1.10;;;10.40;99.90;;;;;;5010195;28;20218;-84
2021/10/23 04:17:33;;;;;;;3.00;1.20;;;10.30;99.90;;;;;;5011793;28;20500;-82
2021/10/23 04:19:59;;;;;;;4.47;1.20;;;10.30;99.90;;;;;;5011636;28;20970;-84
2021/10/23 04:22:26;;;;;;;5.80;1.50;;;10.20;99.90;;;;;;5011257;28;20210;-83
2021/10/23 04:24:53;;;;;;;5.90;1.50;;;10.20;99.90;;;;;;5011840;28;20238;-84
2021/10/23 04:27:20;;;;;;;4.63;1.33;;;10.20;99.90;;;;;;5011656;28;20226;-84
2021/10/23 04:29:48;;;;;;;4.00;0.90;;;10.20;99.90;;;;;;5011063;28;20219;-85
2021/10/23 04:32:15;;;;;;;3.37;0.80;;;10.10;99.90;;;;;;5029703;28;20226;-84
2021/10/23 04:34:42;;;;;;;4.00;1.47;;;10.10;99.90;;;;;;5012311;28;20192;-82
2021/10/23 04:37:09;;;;;;;6.20;1.40;;;10.00;99.90;;;;;;5011464;28;20210;-84
2021/10/23 04:39:36;;;;;;;4.37;0.77;;;9.90;99.90;;;;;;5010719;28;20226;-83
2021/10/23 04:42:04;;;;;;;5.30;1.20;;;9.90;99.90;;;;;;5010723;28;20207;-84
2021/10/23 04:44:31;;;;;;;5.43;1.27;;;9.80;99.90;;;;;;5011074;28;20211;-84
2021/10/23 04:46:59;;;;;;;4.83;1.07;;;9.70;99.90;;;;;;5011816;28;20526;-83
2021/10/23 04:49:26;;;;;;;3.37;1.37;;;9.60;99.90;;;;;;5030979;28;20211;-84
2021/10/23 04:51:53;;;;;;;5.67;1.10;;;9.60;99.90;;;;;;5030675;28;20207;-83
2021/10/23 04:54:19;;;;;;;2.37;0.73;;;9.50;99.90;;;;;;5030266;28;20203;-84
2021/10/23 04:56:46;;;;;;;2.20;0.87;;;9.40;99.90;;;;;;5014127;28;20217;-85
2021/10/23 04:59:13;;;;;;;2.47;1.07;;;9.30;99.90;;;;;;5011696;28;20211;-84
2021/10/23 05:01:40;;;;;;;2.83;0.87;;;9.30;99.90;;;;;;5010502;28;20493;-83
2021/10/23 05:04:08;;;;;;;2.77;0.63;;;9.20;99.90;;;;;;5010537;28;20195;-83
2021/10/23 05:06:35;;;;;;;1.57;0.80;;;9.10;99.90;;;;;;5010244;28;20219;-84
2021/10/23 05:09:02;;;;;;;2.20;0.70;;;9.10;99.90;;;;;;5018164;28;20253;-83
2021/10/23 05:11:29;;;;;;;1.63;0.90;;;9.00;99.90;;;;;;5030637;28;20576;-84
2021/10/23 05:13:55;;;;;;;2.57;1.07;;;9.00;99.90;;;;;;5030838;28;20198;-85
2021/10/23 05:16:22;;;;;;;2.63;1.07;;;9.00;99.90;;;;;;5030227;28;20194;-83
2021/10/23 05:18:49;;;;;;;3.60;1.13;;;9.00;99.90;;;;;;5030419;28;20210;-84
2021/10/23 05:21:18;;;;;;;3.10;1.37;;;8.90;99.90;;;;;;5030482;28;20649;-83
2021/10/23 05:23:47;;;;;;;1.73;0.90;;;8.90;99.90;;;;;;5021331;28;20612;-84
2021/10/23 05:26:15;;;;;;;3.20;0.90;;;8.90;99.90;;;;;;5009242;28;20449;-84
2021/10/23 05:28:42;;;;;;;2.47;0.90;;;8.90;99.90;;;;;;5009800;28;20206;-83
2021/10/23 05:31:09;;;;;;;2.17;0.90;;;8.80;99.90;;;;;;5010337;28;20210;-86
2021/10/23 05:33:36;;;;;;;1.63;0.90;;;8.80;99.90;;;;;;5009667;28;20636;-85
2021/10/23 05:36:03;;;;;;;3.50;1.07;;;8.80;99.90;;;;;;5009910;28;20588;-85
2021/10/23 05:38:31;;;;;;;3.37;0.90;;;8.80;99.90;;;;;;5008630;28;20615;-86
2021/10/23 05:40:58;;;;;;;1.83;1.00;;;8.80;99.90;;;;;;5007191;28;20203;-85
2021/10/23 05:43:24;;;;;;;2.20;0.90;;;8.80;99.90;;;;;;5007157;28;20207;-85
2021/10/23 05:45:51;;;;;;;3.27;1.13;;;8.70;99.90;;;;;;5008348;28;20211;-85
2021/10/23 05:48:18;;;;;;;2.90;0.80;;;8.70;99.90;;;;;;5009021;28;20226;-85
2021/10/23 05:50:45;;;;;;;1.57;0.70;;;8.70;99.90;;;;;;5009996;28;20226;-85
2021/10/23 05:53:12;;;;;;;3.50;1.10;;;8.80;99.90;;;;;;5014163;28;20651;-85
2021/10/23 05:55:41;;;;;;;2.40;1.00;;;8.80;99.90;;;;;;5011534;28;20347;-85
2021/10/23 05:58:08;;;;;;;2.90;0.93;;;8.80;99.90;;;;;;5010770;28;20207;-84
2021/10/23 06:00:36;;;;;;;6.13;1.30;;;8.80;99.90;;;;;;5011839;28;20336;-84
2021/10/23 06:03:03;;;;;;;3.83;1.30;;;8.80;99.90;;;;;;5025308;28;20240;-85
2021/10/23 06:05:31;;;;;;;4.37;1.80;;;8.80;99.90;;;;;;5033804;28;20207;-85
2021/10/23 06:07:57;;;;;;;5.40;1.70;;;8.80;99.90;;;;;;5055908;28;20237;-84
2021/10/23 06:10:25;;;;;;;4.80;1.90;;;8.80;99.90;;;;;;5072034;28;20205;-85
2021/10/23 06:12:53;;;;;;;6.93;1.73;;;8.80;99.90;;;;;;5059014;28;20209;-85
2021/10/23 06:15:20;;;;;;;4.90;1.63;;;8.80;99.90;;;;;;5074195;28;20201;-84
2021/10/23 06:17:46;;;;;;;6.00;1.97;;;8.80;99.90;;;;;;5074383;28;20323;-85
2021/10/23 06:20:13;;;;;;;5.97;1.70;;;8.80;99.90;;;;;;5074658;28;20197;-85
2021/10/23 06:22:49;;;;;;;3.47;1.60;;;8.80;99.90;;;;;;5064731;28;20201;-85
2021/10/23 06:25:17;;;;;;;6.20;2.13;;;8.80;99.90;;;;;;5071699;28;20260;-83
2021/10/23 06:27:44;;;;;;;2.40;1.33;;;8.90;99.90;;;;;;5072732;28;20225;-85
2021/10/23 06:30:13;;;;;;;5.20;2.03;;;8.90;99.90;;;;;;5073891;28;20197;-85
2021/10/23 06:32:45;;;;;;;5.63;2.10;;;8.90;99.90;;;;;;5075206;28;20201;-85
2021/10/23 06:35:12;;;;;;;6.40;1.80;;;8.90;99.90;;;;;;5074789;28;20221;-84
2021/10/23 06:37:39;;;;;;;8.30;2.10;;;9.00;99.90;;;;;;5074742;28;20193;-85
2021/10/23 06:40:07;;;;;;;5.00;1.80;;;9.00;99.90;;;;;;5075050;28;20204;-86
2021/10/23 06:42:34;;;;;;;4.73;1.90;;;9.00;99.90;;;;;;5056570;28;20233;-86
2021/10/23 06:45:01;;;;;;;4.07;2.13;;;9.00;99.90;;;;;;5058802;28;20216;-85
2021/10/23 06:47:30;;;;;;;5.33;2.00;;;9.00;99.90;;;;;;5064792;28;20297;-85
2021/10/23 06:49:58;;;;;;;5.87;2.10;;;9.10;99.90;;;;;;5058384;28;20273;-85
2021/10/23 06:52:25;;;;;;;3.23;1.60;;;9.10;99.90;;;;;;5055757;28;20267;-85
2021/10/23 06:54:52;;;;;;;6.53;2.73;;;9.10;99.90;;;;;;5074191;28;20194;-83
2021/10/23 06:57:19;;;;;;;5.40;2.33;;;9.10;99.90;;;;;;5074393;28;20551;-84
2021/10/23 06:59:45;;;;;;;5.10;2.23;;;9.20;99.90;;;;;;5071430;28;20511;-84
2021/10/23 07:02:12;;;;;;;5.07;2.30;;;9.20;99.90;;;;;;5051300;28;20209;-85
2021/10/23 07:04:41;;;;;;;5.20;2.27;;;9.20;99.90;;;;;;5051543;28;20206;-83
2021/10/23 07:07:08;;;;;;;6.20;2.57;;;9.20;99.90;;;;;;5050866;28;20225;-83
2021/10/23 07:20:32;;;;;;;4.47;2.20;;;9.40;99.90;;;;;;4883246;29;20210;-84
2021/10/23 07:22:59;;;;;;;6.50;2.47;;;9.40;99.90;;;;;;4913460;29;20211;-84
2021/10/23 07:25:27;;;;;;;7.27;2.40;;;9.50;99.90;;;;;;4913993;29;20229;-84
2021/10/23 07:27:53;;;;;;;8.17;2.73;;;9.50;99.90;;;;;;4913879;29;20754;-84
2021/10/23 07:30:20;;;;;;;7.77;2.83;;;9.60;99.90;;;;;;4895859;29;20215;-84
2021/10/23 07:32:47;;;;;;;5.40;2.00;;;9.60;99.90;;;;;;4914000;29;20214;-83
2021/10/23 07:35:15;;;;;;;9.67;2.23;;;9.60;99.90;;;;;;4913095;29;20222;-82
2021/10/23 07:37:43;;;;;;;5.00;1.87;;;9.60;99.90;;;;;;4912391;29;20849;-83
2021/10/23 07:40:13;;;;;;;6.07;2.17;;;9.60;99.90;;;;;;4913524;29;20237;-83
2021/10/23 07:42:40;;;;;;;4.97;2.63;;;9.70;99.90;;;;;;4931345;29;20245;-84
2021/10/23 07:45:08;;;;;;;5.10;1.90;;;9.70;99.90;;;;;;4931106;29;20333;-85
2021/10/23 07:47:35;;;;;;;8.53;3.13;;;9.80;99.90;;;;;;4923317;29;20234;-82
2021/10/23 07:50:02;;;;;;;4.70;1.90;;;9.80;99.90;;;;;;4911683;29;20248;-86
2021/10/23 07:52:29;;;;;;;5.77;2.43;;;9.80;99.90;;;;;;4925426;29;20220;-83
2021/10/23 07:54:57;;;;;;;4.10;1.80;;;9.90;99.90;;;;;;4927726;29;20214;-84
2021/10/23 07:57:24;;;;;;;8.80;2.33;;;10.00;99.90;;;;;;4930422;29;20202;-84
2021/10/23 07:59:51;;;;;;;5.80;2.80;;;10.00;99.90;;;;;;4931022;29;20615;-84
2021/10/23 08:02:17;;;;;;;8.73;1.97;;;10.00;99.90;;;;;;4932325;29;20213;-82
2021/10/23 08:04:44;;;;;;;5.43;2.03;;;10.00;99.90;;;;;;4931112;29;20205;-82
2021/10/23 08:07:11;;;;;;;4.60;1.73;;;10.00;99.90;;;;;;4931935;29;20222;-82
2021/10/23 08:09:39;;;;;;;6.70;1.73;;;10.10;99.90;;;;;;4932126;29;20213;-83
2021/10/23 08:12:09;;;;;;;5.67;1.70;;;10.10;99.90;;;;;;4932041;29;20206;-83
2021/10/23 08:14:37;;;;;;;3.40;2.37;;;10.10;99.90;;;;;;4930857;29;20229;-83
2021/10/23 08:17:04;;;;;;;6.17;1.90;;;10.20;99.90;;;;;;4931949;29;20208;-84
2021/10/23 08:19:31;;;;;;;7.10;2.47;;;10.20;99.90;;;;;;4922704;29;20255;-84
2021/10/23 08:21:58;;;;;;;3.33;1.70;;;10.20;99.90;;;;;;4912457;29;20289;-83
2021/10/23 08:24:25;;;;;;;8.30;2.20;;;10.20;99.90;;;;;;4912376;29;20230;-83
2021/10/23 08:26:51;;;;;;;5.37;2.00;;;10.20;99.90;;;;;;4915444;29;20210;-83
2021/10/23 08:29:20;;;;;;;5.83;2.47;;;10.20;99.90;;;;;;4925802;29;20235;-85
2021/10/23 08:31:47;;;;;;;9.53;2.83;;;10.20;99.90;;;;;;4911845;29;20215;-84
2021/10/23 08:34:14;;;;;;;6.73;1.80;;;10.20;99.90;;;;;;4911347;29;20536;-83
2021/10/23 08:36:41;;;;;;;5.47;2.50;;;10.20;99.90;;;;;;4944536;28;20224;-81
2021/10/23 08:39:08;;;;;;;8.30;2.27;;;10.30;99.90;;;;;;4948721;29;20197;-83
2021/10/23 08:41:35;;;;;;;5.70;1.40;;;10.30;99.90;;;;;;4948764;29;20213;-83
2021/10/23 08:44:06;;;;;;;5.67;1.90;;;10.30;99.90;;;;;;4949701;28;20212;-82
2021/10/23 08:46:38;;;;;;;6.90;1.93;;;10.30;99.90;;;;;;4949163;29;20215;-81
2021/10/23 08:49:06;;;;;;;4.73;1.47;;;10.40;99.90;;;;;;4966445;28;20287;-81
2021/10/23 08:51:34;;;;;;;8.97;1.80;;;10.40;99.90;;;;;;4968956;28;20208;-83
2021/10/23 08:54:01;;;;;;;6.83;2.13;;;10.40;99.90;;;;;;4960452;28;20209;-84
2021/10/23 08:56:28;;;;;;;8.37;1.93;;;10.40;99.90;;;;;;4948479;28;20613;-83
2021/10/23 08:58:55;;;;;;;6.27;2.20;;;10.40;99.90;;;;;;4983108;28;20208;-87
2021/10/23 09:01:22;;;;;;;8.53;2.47;;;10.40;99.90;;;;;;4989700;28;20204;-85
2021/10/23 09:03:52;;;;;;;4.47;1.83;;;10.50;99.90;;;;;;4989698;28;20345;-86
2021/10/23 09:06:30;;;;;;;3.47;2.03;;;10.50;99.90;;;;;;5002694;28;20215;-86
2021/10/23 09:09:05;;;;;;;10.43;3.03;;;10.50;99.90;;;;;;5009406;28;20561;-88
2021/10/23 09:11:34;;;;;;;6.23;2.00;;;10.60;99.90;;;;;;5009352;28;20206;-87
2021/10/23 09:14:24;;;;;;;5.50;1.70;;;10.60;99.90;;;;;;5005699;28;20244;-79
2021/10/23 09:17:01;;;;;;;8.17;1.97;;;10.60;99.90;;;;;;4989614;28;20201;-87
2021/10/23 09:19:42;;;;;;;11.30;2.33;;;10.60;99.90;;;;;;4989131;28;20631;-83
2021/10/23 09:22:24;;;;;;;10.13;1.93;;;10.60;99.90;;;;;;4989193;28;20208;-84
2021/10/23 09:24:51;;;;;;;3.80;1.63;;;10.70;99.90;;;;;;5014418;28;20224;-91
2021/10/23 09:27:19;;;;;;;5.73;1.77;;;10.70;99.90;;;;;;5049983;28;20206;-81
2021/10/23 09:29:57;;;;;;;7.67;2.80;;;10.70;99.90;;;;;;5048396;28;20207;-88
2021/10/23 09:32:23;;;;;;;7.83;1.90;;;10.80;99.90;;;;;;5049774;28;20210;-83
2021/10/23 09:34:52;;;;;;;10.87;2.03;;;10.80;99.90;;;;;;5047459;28;20206;-89
2021/10/23 09:37:19;;;;;;;11.37;2.43;;;10.80;99.90;;;;;;5051094;28;20205;-89
2021/10/23 09:39:46;;;;;;;7.13;2.33;;;10.80;99.90;;;;;;5063714;28;20201;-87
2021/10/23 09:42:16;;;;;;;7.33;2.10;;;10.80;99.90;;;;;;5069808;28;20596;-92
2021/10/23 09:45:04;;;;;;;7.77;1.97;;;10.80;99.90;;;;;;5069660;28;20319;-89
2021/10/23 09:47:34;;;;;;;6.67;2.10;;;10.90;99.90;;;;;;5057477;28;20273;-91
2021/10/23 09:50:15;;;;;;;7.87;2.10;;;10.90;99.90;;;;;;5053934;28;20286;-90
2021/10/23 09:53:06;;;;;;;11.57;2.93;;;10.90;99.90;;;;;;5051280;28;20212;-91
2021/10/23 09:55:51;;;;;;;7.80;2.30;;;11.00;99.90;;;;;;5050616;28;20502;-91
2021/10/23 09:58:19;;;;;;;7.50;2.30;;;11.00;99.90;;;;;;5051701;28;20244;-91
2021/10/23 10:00:48;;;;;;;5.10;2.07;;;11.10;99.90;;;;;;5050729;28;20237;-90
2021/10/23 10:03:15;;;;;;;6.50;2.33;;;11.10;99.90;;;;;;5032559;28;20213;-92
2021/10/23 10:05:44;;;;;;;7.57;1.83;;;11.20;99.90;;;;;;5053002;28;20214;-83
2021/10/23 10:08:12;;;;;;;5.63;2.40;;;11.20;99.90;;;;;;5054163;28;20245;-89
2021/10/23 10:10:41;;;;;;;6.77;2.70;;;11.20;99.90;;;;;;5050353;28;20206;-91
2021/10/23 10:13:10;;;;;;;8.93;2.40;;;11.30;99.90;;;;;;5049339;28;20210;-84
2021/10/23 10:15:38;;;;;;;7.83;2.73;;;11.30;99.90;;;;;;5049546;28;20895;-92
2021/10/23 10:18:06;;;;;;;10.47;2.60;;;11.30;99.90;;;;;;5049869;28;20202;-86
2021/10/23 10:20:36;;;;;;;7.93;2.50;;;11.30;99.90;;;;;;5050695;28;20820;-89
2021/10/23 10:23:09;;;;;;;8.57;2.63;;;11.30;99.90;;;;;;5050635;28;20479;-90
2021/10/23 10:25:36;;;;;;;6.40;2.40;;;11.30;99.90;;;;;;5049406;28;20443;-84
2021/10/23 10:28:14;;;;;;;10.03;2.77;;;11.30;99.90;;;;;;5049699;28;20614;-91
2021/10/23 10:30:45;;;;;;;6.93;2.30;;;11.30;99.90;;;;;;5050163;28;20308;-89
2021/10/23 10:33:25;;;;;;;6.00;2.33;;;11.40;99.90;;;;;;5049436;28;20208;-84
2021/10/23 10:36:29;;;;;;;8.17;2.77;;;11.40;99.90;;;;;;5047577;28;20202;-91
2021/10/23 10:39:36;;;;;;;8.13;2.73;;;11.40;99.90;;;;;;5047998;28;20288;-92
2021/10/23 10:45:28;;;;;;;8.67;3.10;;;11.60;99.90;;;;;;5073815;28;20288;-91
2021/10/23 10:48:15;;;;;;;4.97;2.93;;;11.60;99.90;;;;;;5074487;28;20233;-83
2021/10/23 10:50:44;;;;;;;7.33;3.03;;;11.80;99.90;;;;;;5071656;28;20284;-87
2021/10/23 10:53:14;;;;;;;6.00;3.60;;;11.80;99.90;;;;;;5053188;28;20205;-87
2021/10/23 10:55:44;;;;;;;7.20;3.43;;;11.80;99.90;;;;;;5053679;28;20202;-83
2021/10/23 10:58:12;;;;;;;6.37;2.90;;;11.80;99.90;;;;;;5053730;28;20213;-87
2021/10/23 11:01:13;;;;;;;8.10;3.77;;;11.80;99.90;;;;;;5053199;28;20207;-83
2021/10/23 11:03:43;;;;;;;7.27;3.07;;;11.90;99.90;;;;;;5049008;28;20221;-88
2021/10/23 11:06:56;;;;;;;4.67;3.17;;;11.90;99.90;;;;;;5052671;28;20193;-90
2021/10/23 11:09:50;;;;;;;5.07;3.37;;;11.90;99.90;;;;;;5060380;28;20657;-89
2021/10/23 11:12:31;;;;;;;6.00;3.17;;;11.90;99.90;;;;;;5073745;28;20571;-90
2021/10/23 11:14:59;;;;;;;7.27;3.73;;;11.90;99.90;;;;;;5072742;28;20205;-89
2021/10/23 11:17:26;;;;;;;5.77;3.10;;;11.90;99.90;;;;;;5073766;28;20209;-88
2021/10/23 11:20:01;;;;;;;6.80;3.17;;;11.90;99.90;;;;;;5074062;28;20208;-90
2021/10/23 11:22:31;;;;;;;8.37;3.63;;;12.00;99.90;;;;;;5073810;28;20492;-86
2021/10/23 11:25:03;;;;;;;9.87;4.33;;;12.00;99.90;;;;;;5074104;28;20236;-89
2021/10/23 11:27:45;;;;;;;8.93;3.83;;;12.10;99.90;;;;;;5074530;28;20185;-87
2021/10/23 11:30:18;;;;;;;7.13;3.83;;;12.20;99.90;;;;;;5073308;28;20232;-89
2021/10/23 11:32:53;;;;;;;6.20;3.53;;;12.20;99.90;;;;;;5068624;28;20488;-86
2021/10/23 11:35:28;;;;;;;7.63;3.77;;;12.30;99.90;;;;;;5053612;28;20205;-84
2021/10/23 11:37:55;;;;;;;8.87;3.40;;;12.30;99.90;;;;;;5054283;28;20204;-88
2021/10/23 11:40:21;;;;;;;8.43;3.30;;;12.30;99.90;;;;;;5053760;28;20312;-81
2021/10/23 11:42:51;;;;;;;8.23;3.63;;;12.40;99.90;;;;;;5062189;28;20216;-89
2021/10/23 11:45:20;;;;;;;6.40;3.40;;;12.40;99.90;;;;;;5082625;28;20209;-89
2021/10/23 11:47:47;;;;;;;6.83;3.40;;;12.40;99.90;;;;;;5082027;28;20201;-84
2021/10/23 11:50:23;;;;;;;3.97;3.10;;;12.40;99.90;;;;;;5077233;28;20240;-90
2021/10/23 11:52:52;;;;;;;4.63;2.90;;;12.50;99.90;;;;;;5077669;28;20189;-86
2021/10/23 11:55:36;;;;;;;4.27;3.80;;;12.50;99.90;;;;;;5075730;28;20209;-84
2021/10/23 11:58:07;;;;;;;8.40;3.90;;;12.50;99.90;;;;;;5073630;28;20201;-89
2021/10/23 12:00:35;;;;;;;4.07;3.23;;;12.50;99.90;;;;;;5071713;28;20602;-88
2021/10/23 12:03:05;;;;;;;8.07;3.20;;;12.50;99.90;;;;;;5064385;28;20293;-91
2021/10/23 12:05:45;;;;;;;5.80;3.00;;;12.50;99.90;;;;;;5051649;28;20293;-90
2021/10/23 12:08:20;;;;;;;5.47;2.60;;;12.50;99.90;;;;;;5051984;28;20246;-91
2021/10/23 12:11:16;;;;;;;9.43;4.10;;;12.50;99.90;;;;;;5050990;28;20216;-87
2021/10/23 12:14:04;;;;;;;8.53;3.57;;;12.50;99.90;;;;;;5051962;28;20197;-83
2021/10/23 12:16:33;;;;;;;8.10;3.40;;;12.50;99.90;;;;;;5051266;28;20241;-87
2021/10/23 12:19:07;;;;;;;8.47;3.50;;;12.50;99.90;;;;;;5051178;28;20289;-82
2021/10/23 12:21:55;;;;;;;5.60;3.47;;;12.40;99.90;;;;;;5051493;28;20202;-82
2021/10/23 12:24:30;;;;;;;7.67;3.90;;;12.50;99.90;;;;;;5044971;28;20237;-86
2021/10/23 12:27:07;;;;;;;4.90;2.97;;;12.50;99.90;;;;;;5060415;28;20209;-86
2021/10/23 12:29:38;;;;;;;6.10;2.80;;;12.50;99.90;;;;;;5049975;28;20229;-86
2021/10/23 12:32:07;;;;;;;6.87;3.80;;;12.50;99.90;;;;;;5054236;28;20213;-83
2021/10/23 12:34:56;;;;;;;6.07;3.23;;;12.50;99.90;;;;;;5052301;28;20213;-85
2021/10/23 12:37:45;;;;;;;4.83;3.13;;;12.50;99.90;;;;;;5055024;28;20221;-87
2021/10/23 12:40:21;;;;;;;6.33;3.10;;;12.50;99.90;;;;;;5053846;28;20214;-85
2021/10/23 12:42:51;;;;;;;7.23;3.60;;;12.50;99.90;;;;;;5056922;28;20223;-86
2021/10/23 12:45:22;;;;;;;7.10;3.03;;;12.50;99.90;;;;;;5061293;28;20244;-86
2021/10/23 12:47:49;;;;;;;5.87;3.30;;;12.50;99.90;;;;;;5054380;28;20213;-85
2021/10/23 12:50:19;;;;;;;6.03;3.47;;;12.50;99.90;;;;;;5051235;28;20225;-87
2021/10/23 12:52:53;;;;;;;4.83;3.20;;;12.40;99.90;;;;;;5068511;28;20678;-86
2021/10/23 12:55:21;;;;;;;8.17;3.57;;;12.40;99.90;;;;;;5070398;28;20762;-84
2021/10/23 12:57:48;;;;;;;7.57;4.20;;;12.40;99.90;;;;;;5066443;28;20918;-86
2021/10/23 13:00:15;;;;;;;7.93;5.57;;;12.40;99.90;;;;;;5048779;28;20193;-85
2021/10/23 13:02:45;;;;;;;8.27;4.27;;;12.40;99.90;;;;;;5048045;28;20725;-83
2021/10/23 13:05:12;;;;;;;8.50;5.40;;;12.30;99.90;;;;;;5061962;28;20883;-85
2021/10/23 13:07:39;;;;;;;8.07;5.67;;;12.30;99.90;;;;;;5069551;28;20240;-85
2021/10/23 13:10:09;;;;;;;9.17;6.33;;;12.40;99.90;;;;;;5067873;28;20649;-81
2021/10/23 13:12:36;;;;;;;10.63;7.20;;;12.30;99.90;;;;;;5065776;28;20240;-80
2021/10/23 13:15:04;;;;;;;9.43;6.47;;;12.30;99.90;;;;;;5049514;28;20209;-82